Time;durP1;ratioP1;P1;durP2;ratioP2;P2;SDS_P1;SDS_P2;PMS_P1;PMS_P2;Temp;Humidity;BMP_temperature;BMP_pressure;BME280_temperature;BME280_humidity;BME280_pressure;Samples;Min_cycle;Max_cycle;Signal;HPM_P1;HPM_P2
2021/12/04 00:00:52;;;;;;;16.75;8.00;;;;;;;;;;5072668;28;20063;-79
2021/12/04 00:03:19;;;;;;;19.10;8.82;;;;;;;;;;5073114;28;20053;-81
2021/12/04 00:05:50;;;;;;;16.58;7.97;;;;;;;;;;5072338;28;20091;-80
2021/12/04 00:08:16;;;;;;;15.57;8.43;;;;;;;;;;5071173;28;20111;-80
2021/12/04 00:10:43;;;;;;;15.50;7.95;;;;;;;;;;5072655;28;20069;-79
2021/12/04 00:13:09;;;;;;;17.23;8.70;;;;;;;;;;5074304;28;20081;-80
2021/12/04 00:15:36;;;;;;;15.02;7.93;;;;;;;;;;5067148;28;20046;-80
2021/12/04 00:18:02;;;;;;;18.35;8.80;;;;;;;;;;5072446;28;20068;-80
2021/12/04 00:20:30;;;;;;;19.27;8.93;;;;;;;;;;5070865;28;20049;-79
2021/12/04 00:23:00;;;;;;;17.30;8.68;;;;;;;;;;5072439;28;20123;-80
2021/12/04 00:25:27;;;;;;;18.77;8.85;;;;;;;;;;5071702;28;20059;-80
2021/12/04 00:27:54;;;;;;;18.45;8.52;;;;;;;;;;5087631;28;20059;-79
2021/12/04 00:30:21;;;;;;;19.55;9.45;;;;;;;;;;5074378;28;20119;-79
2021/12/04 00:33:25;;;;;;;19.95;9.45;;;;;;;;;;5072411;28;20049;-80
2021/12/04 00:51:35;;;;;;;22.13;9.95;;;;;;;;;;5072061;28;20064;-79
2021/12/04 00:54:01;;;;;;;20.58;9.45;;;;;;;;;;5073116;28;20057;-80
2021/12/04 00:56:27;;;;;;;21.15;9.98;;;;;;;;;;5072891;28;20053;-79
2021/12/04 00:58:54;;;;;;;23.13;10.23;;;;;;;;;;5070085;28;20061;-80
2021/12/04 01:01:20;;;;;;;21.02;10.50;;;;;;;;;;5070060;28;20065;-79
2021/12/04 01:03:47;;;;;;;21.58;10.13;;;;;;;;;;5071601;28;20461;-80
2021/12/04 01:06:13;;;;;;;21.80;10.85;;;;;;;;;;5071067;28;20107;-79
2021/12/04 01:08:40;;;;;;;21.80;10.07;;;;;;;;;;5071336;28;20053;-79
2021/12/04 01:11:06;;;;;;;20.02;9.55;;;;;;;;;;5061480;28;20053;-80
2021/12/04 01:13:33;;;;;;;21.20;9.88;;;;;;;;;;5063746;28;20107;-80
2021/12/04 01:16:00;;;;;;;20.00;9.05;;;;;;;;;;5067476;28;20159;-79
2021/12/04 01:18:27;;;;;;;18.65;9.00;;;;;;;;;;5071187;28;20550;-79
2021/12/04 01:20:54;;;;;;;17.67;8.77;;;;;;;;;;5074563;28;20056;-80
2021/12/04 01:23:23;;;;;;;19.23;8.57;;;;;;;;;;5076240;28;20052;-80
2021/12/04 01:25:50;;;;;;;16.63;8.43;;;;;;;;;;5074656;28;20065;-80
2021/12/04 01:28:16;;;;;;;18.70;8.98;;;;;;;;;;5074816;28;20988;-79
2021/12/04 01:30:43;;;;;;;16.90;8.15;;;;;;;;;;5073785;28;20056;-79
2021/12/04 01:33:09;;;;;;;18.75;8.52;;;;;;;;;;5074566;28;20516;-78
2021/12/04 01:35:35;;;;;;;19.10;8.48;;;;;;;;;;5074748;28;20053;-77
2021/12/04 01:38:02;;;;;;;17.63;8.13;;;;;;;;;;5074466;28;20180;-80
2021/12/04 01:40:28;;;;;;;16.83;8.32;;;;;;;;;;5073400;28;20053;-80
2021/12/04 01:42:55;;;;;;;18.10;7.95;;;;;;;;;;5073355;28;20084;-79
2021/12/04 01:45:22;;;;;;;19.05;8.52;;;;;;;;;;5074959;28;20053;-77
2021/12/04 01:47:48;;;;;;;18.65;8.50;;;;;;;;;;5074533;28;20057;-80
2021/12/04 01:50:14;;;;;;;18.50;8.65;;;;;;;;;;5073220;28;20057;-80
2021/12/04 01:52:41;;;;;;;19.02;8.77;;;;;;;;;;5075628;28;20053;-79
2021/12/04 01:55:08;;;;;;;21.13;9.18;;;;;;;;;;5072941;28;20590;-80
2021/12/04 01:57:35;;;;;;;21.20;9.43;;;;;;;;;;5072738;28;20057;-80
2021/12/04 02:00:05;;;;;;;23.05;10.23;;;;;;;;;;5073215;28;20524;-79
2021/12/04 02:02:31;;;;;;;22.10;9.47;;;;;;;;;;5072786;28;20415;-79
2021/12/04 02:04:58;;;;;;;23.63;10.45;;;;;;;;;;5072244;28;20067;-79
2021/12/04 02:07:24;;;;;;;25.95;10.77;;;;;;;;;;5064242;28;20104;-79
2021/12/04 02:09:50;;;;;;;24.23;11.30;;;;;;;;;;5067668;28;20049;-79
2021/12/04 02:12:17;;;;;;;25.83;10.85;;;;;;;;;;5060036;28;20752;-80
2021/12/04 02:14:43;;;;;;;26.85;11.35;;;;;;;;;;5074642;28;20114;-79
2021/12/04 02:17:10;;;;;;;23.92;10.77;;;;;;;;;;5055170;28;20064;-79
2021/12/04 02:19:36;;;;;;;29.73;12.40;;;;;;;;;;5074298;28;20132;-80
2021/12/04 02:22:03;;;;;;;31.77;12.05;;;;;;;;;;5073635;28;20078;-79
2021/12/04 02:24:29;;;;;;;28.17;11.93;;;;;;;;;;5076904;28;20049;-79
2021/12/04 02:26:56;;;;;;;31.83;12.48;;;;;;;;;;5089727;28;20076;-80
2021/12/04 02:29:22;;;;;;;33.45;12.55;;;;;;;;;;5099041;28;20049;-80
2021/12/04 02:31:50;;;;;;;30.42;12.13;;;;;;;;;;5081971;28;20049;-80
2021/12/04 02:34:23;;;;;;;36.25;12.85;;;;;;;;;;5073841;28;20440;-79
2021/12/04 02:36:49;;;;;;;30.92;12.70;;;;;;;;;;5071195;28;20071;-79
2021/12/04 02:39:24;;;;;;;32.47;13.20;;;;;;;;;;5073559;28;20119;-79
2021/12/04 02:41:51;;;;;;;34.60;12.63;;;;;;;;;;5070205;28;20103;-79
2021/12/04 02:44:17;;;;;;;34.08;13.07;;;;;;;;;;5072606;28;20083;-80
2021/12/04 02:46:44;;;;;;;39.15;13.82;;;;;;;;;;5072538;28;20095;-80
2021/12/04 02:49:12;;;;;;;41.05;14.02;;;;;;;;;;5071683;28;20107;-79
2021/12/04 02:51:40;;;;;;;32.22;13.13;;;;;;;;;;5073066;28;20052;-79
2021/12/04 02:54:07;;;;;;;38.05;13.45;;;;;;;;;;5071113;28;20504;-80
2021/12/04 02:56:33;;;;;;;37.78;13.35;;;;;;;;;;5068963;28;20695;-79
2021/12/04 02:59:03;;;;;;;37.75;13.40;;;;;;;;;;5072479;28;20079;-79
2021/12/04 03:01:30;;;;;;;41.83;14.23;;;;;;;;;;5071568;28;20061;-79
2021/12/04 03:04:09;;;;;;;37.75;13.63;;;;;;;;;;5072079;28;20064;-79
2021/12/04 03:06:45;;;;;;;39.08;13.45;;;;;;;;;;5068229;28;20136;-79
2021/12/04 03:09:13;;;;;;;34.75;13.10;;;;;;;;;;5072603;28;20052;-79
2021/12/04 03:11:39;;;;;;;43.00;13.82;;;;;;;;;;5065833;28;20945;-80
2021/12/04 03:14:06;;;;;;;46.42;13.45;;;;;;;;;;5070837;28;20488;-79
2021/12/04 03:16:33;;;;;;;39.88;14.20;;;;;;;;;;5073433;28;20478;-79
2021/12/04 03:19:00;;;;;;;48.00;14.75;;;;;;;;;;5070969;28;20139;-79
2021/12/04 03:21:26;;;;;;;45.90;14.85;;;;;;;;;;5072425;28;20111;-80
2021/12/04 03:24:02;;;;;;;43.92;15.10;;;;;;;;;;5071175;28;20602;-80
2021/12/04 03:26:28;;;;;;;42.08;14.30;;;;;;;;;;5071920;28;20041;-78
2021/12/04 03:28:57;;;;;;;50.05;15.27;;;;;;;;;;5072741;28;20057;-80
2021/12/04 03:31:43;;;;;;;53.22;14.82;;;;;;;;;;5072946;28;20093;-79
2021/12/04 03:42:24;;;;;;;57.30;15.73;;;;;;;;;;5075630;28;20901;-81
2021/12/04 03:44:51;;;;;;;48.38;14.43;;;;;;;;;;5075794;28;20084;-80
2021/12/04 03:47:17;;;;;;;45.70;15.10;;;;;;;;;;5076787;28;20103;-81
2021/12/04 03:49:44;;;;;;;43.70;14.55;;;;;;;;;;5076407;28;20562;-81
2021/12/04 03:52:10;;;;;;;47.90;14.43;;;;;;;;;;5077585;28;20925;-81
2021/12/04 03:54:37;;;;;;;49.85;15.50;;;;;;;;;;5076803;28;20049;-81
2021/12/04 03:57:04;;;;;;;46.67;16.20;;;;;;;;;;5076007;28;20130;-80
2021/12/04 03:59:35;;;;;;;46.58;14.68;;;;;;;;;;5074945;28;20057;-81
2021/12/04 04:02:03;;;;;;;61.47;16.30;;;;;;;;;;5075333;28;20058;-81
2021/12/04 04:04:29;;;;;;;70.60;16.08;;;;;;;;;;5076228;28;20522;-81
2021/12/04 04:06:58;;;;;;;42.35;14.27;;;;;;;;;;5075751;28;20119;-81
2021/12/04 04:09:25;;;;;;;44.70;15.13;;;;;;;;;;5076455;28;20053;-80
2021/12/04 04:11:51;;;;;;;71.38;16.63;;;;;;;;;;5075838;28;20049;-80
2021/12/04 04:14:17;;;;;;;50.10;16.05;;;;;;;;;;5076492;28;20052;-81
2021/12/04 04:16:44;;;;;;;66.57;17.33;;;;;;;;;;5064302;28;20108;-81
2021/12/04 04:19:11;;;;;;;71.85;16.52;;;;;;;;;;5067190;28;20025;-81
2021/12/04 04:21:42;;;;;;;65.70;16.77;;;;;;;;;;5074976;28;20063;-81
2021/12/04 04:24:08;;;;;;;;;;;;;;;;;;5076464;28;20064;-81
2021/12/04 04:26:35;;;;;;;63.90;15.25;;;;;;;;;;5092485;28;48324;-81
2021/12/04 04:29:03;;;;;;;59.72;15.52;;;;;;;;;;5075891;28;20041;-80
2021/12/04 04:31:29;;;;;;;83.65;17.98;;;;;;;;;;5078800;28;20069;-81
2021/12/04 04:34:05;;;;;;;74.10;16.80;;;;;;;;;;5075221;28;20038;-81
2021/12/04 05:11:33;;;;;;;78.50;18.02;;;;;;;;;;5068801;28;20045;-82
2021/12/04 05:13:59;;;;;;;70.63;17.27;;;;;;;;;;5076415;28;20123;-81
2021/12/04 05:16:30;;;;;;;74.93;17.15;;;;;;;;;;5074220;28;20095;-81
2021/12/04 05:19:00;;;;;;;89.88;18.85;;;;;;;;;;5074902;28;20474;-81
2021/12/04 05:21:31;;;;;;;99.05;18.13;;;;;;;;;;5074806;28;20053;-81
2021/12/04 05:23:58;;;;;;;104.57;19.15;;;;;;;;;;5072457;28;20044;-81
2021/12/04 05:26:26;;;;;;;86.05;17.75;;;;;;;;;;5057705;28;20049;-82
2021/12/04 05:28:53;;;;;;;80.70;17.95;;;;;;;;;;5060991;28;20053;-82
2021/12/04 05:31:20;;;;;;;83.47;17.35;;;;;;;;;;5071920;28;20045;-82
2021/12/04 05:33:48;;;;;;;109.20;18.85;;;;;;;;;;5080213;28;20059;-81
2021/12/04 05:36:14;;;;;;;77.32;17.05;;;;;;;;;;5077691;28;20041;-82
2021/12/04 05:38:40;;;;;;;98.88;18.52;;;;;;;;;;5076028;28;20053;-80
2021/12/04 05:41:07;;;;;;;95.15;18.35;;;;;;;;;;5076461;28;20206;-82
2021/12/04 05:43:34;;;;;;;100.38;18.80;;;;;;;;;;5075813;28;20053;-81
2021/12/04 05:46:16;;;;;;;91.85;18.50;;;;;;;;;;5076176;28;20049;-81
2021/12/04 05:52:40;;;;;;;101.57;17.88;;;;;;;;;;5059545;28;20049;-81
2021/12/04 05:57:08;;;;;;;99.63;18.27;;;;;;;;;;5075647;28;20103;-82
2021/12/04 05:59:34;;;;;;;94.63;18.50;;;;;;;;;;5074528;28;20041;-81
2021/12/04 06:02:02;;;;;;;107.90;18.73;;;;;;;;;;5074559;28;20053;-81
2021/12/04 06:04:28;;;;;;;103.78;19.48;;;;;;;;;;5075050;28;20056;-79
2021/12/04 06:06:55;;;;;;;95.13;17.60;;;;;;;;;;5077986;28;20057;-81
2021/12/04 06:09:22;;;;;;;109.35;19.35;;;;;;;;;;5074369;28;20057;-81
2021/12/04 06:11:49;;;;;;;109.07;20.05;;;;;;;;;;5078381;28;20045;-82
2021/12/04 06:14:15;;;;;;;106.72;19.63;;;;;;;;;;5079324;28;20103;-81
2021/12/04 06:16:41;;;;;;;99.63;18.63;;;;;;;;;;5077182;28;20057;-81
2021/12/04 06:19:13;;;;;;;83.95;17.63;;;;;;;;;;5073123;28;20319;-82
2021/12/04 06:24:25;;;;;;;83.07;18.00;;;;;;;;;;5078205;28;20053;-81
2021/12/04 06:26:51;;;;;;;104.97;18.42;;;;;;;;;;5078635;28;20068;-80
2021/12/04 06:29:17;;;;;;;130.75;20.83;;;;;;;;;;5076220;28;20079;-81
2021/12/04 06:31:44;;;;;;;110.43;18.35;;;;;;;;;;5065771;28;20076;-81
2021/12/04 06:34:10;;;;;;;118.45;19.42;;;;;;;;;;5057073;28;20061;-81
2021/12/04 06:36:37;;;;;;;120.50;20.98;;;;;;;;;;5060973;28;20033;-81
2021/12/04 06:39:04;;;;;;;89.80;19.08;;;;;;;;;;5078180;28;20041;-81
2021/12/04 06:41:31;;;;;;;119.30;20.58;;;;;;;;;;5089624;28;20891;-81
2021/12/04 06:43:57;;;;;;;91.68;17.75;;;;;;;;;;5097884;28;20053;-82
2021/12/04 06:46:24;;;;;;;92.03;18.92;;;;;;;;;;5100245;28;20041;-82
2021/12/04 06:51:25;;;;;;;88.93;18.48;;;;;;;;;;5079185;28;20221;-81
2021/12/04 06:54:02;;;;;;;90.47;19.55;;;;;;;;;;5079356;28;20053;-82
2021/12/04 06:56:34;;;;;;;119.50;19.52;;;;;;;;;;5075976;28;20053;-82
2021/12/04 06:59:06;;;;;;;102.53;18.83;;;;;;;;;;5076260;28;20110;-81
2021/12/04 07:01:32;;;;;;;105.88;19.48;;;;;;;;;;5076675;28;20057;-81
2021/12/04 07:03:59;;;;;;;90.15;17.38;;;;;;;;;;5077576;28;20056;-81
2021/12/04 07:06:25;;;;;;;85.43;18.35;;;;;;;;;;5075971;28;20118;-82
2021/12/04 07:08:52;;;;;;;86.60;16.27;;;;;;;;;;5078349;28;20695;-81
2021/12/04 07:11:18;;;;;;;83.32;17.60;;;;;;;;;;5077436;28;20079;-81
2021/12/04 07:13:45;;;;;;;71.10;16.85;;;;;;;;;;5079084;28;20056;-81
2021/12/04 07:16:14;;;;;;;77.70;17.95;;;;;;;;;;5077026;28;20037;-82
2021/12/04 07:18:40;;;;;;;71.70;17.02;;;;;;;;;;5070902;28;20601;-81
2021/12/04 07:21:06;;;;;;;73.25;17.15;;;;;;;;;;5056802;28;20053;-82
2021/12/04 07:23:33;;;;;;;84.32;19.13;;;;;;;;;;5072201;28;20056;-81
2021/12/04 07:26:02;;;;;;;78.82;17.40;;;;;;;;;;5075307;28;20947;-82
2021/12/04 07:28:29;;;;;;;84.30;17.58;;;;;;;;;;5075298;28;20527;-81
2021/12/04 07:30:56;;;;;;;68.65;17.33;;;;;;;;;;5073410;28;20115;-82
2021/12/04 07:33:22;;;;;;;77.97;16.30;;;;;;;;;;5076946;28;20107;-82
2021/12/04 07:35:49;;;;;;;82.25;18.83;;;;;;;;;;5064457;28;20569;-81
2021/12/04 07:38:16;;;;;;;78.60;17.48;;;;;;;;;;5075980;28;20052;-82
2021/12/04 07:40:43;;;;;;;76.60;17.92;;;;;;;;;;5073830;28;20054;-81
2021/12/04 07:43:10;;;;;;;85.93;18.13;;;;;;;;;;5082631;28;20037;-81
2021/12/04 07:45:36;;;;;;;79.05;18.65;;;;;;;;;;5073511;28;20102;-81
2021/12/04 07:48:03;;;;;;;79.38;17.52;;;;;;;;;;5074341;28;20048;-82
2021/12/04 07:50:30;;;;;;;82.85;17.90;;;;;;;;;;5074831;28;20045;-81
2021/12/04 07:52:57;;;;;;;67.55;18.35;;;;;;;;;;5074809;28;20056;-80
2021/12/04 07:55:24;;;;;;;67.68;18.17;;;;;;;;;;5073911;28;20056;-81
2021/12/04 07:57:51;;;;;;;86.15;17.10;;;;;;;;;;5074368;28;20820;-81
2021/12/04 08:00:18;;;;;;;67.82;16.75;;;;;;;;;;5076635;28;20056;-79
2021/12/04 08:02:45;;;;;;;71.55;17.45;;;;;;;;;;5075202;28;20049;-80
2021/12/04 08:05:12;;;;;;;67.10;17.80;;;;;;;;;;5075062;28;20068;-81
2021/12/04 08:07:38;;;;;;;104.93;19.92;;;;;;;;;;5076609;28;20079;-82
2021/12/04 08:10:09;;;;;;;97.15;20.15;;;;;;;;;;5070045;28;20041;-81
2021/12/04 08:12:37;;;;;;;62.25;17.17;;;;;;;;;;5070533;28;20061;-81
2021/12/04 08:15:04;;;;;;;74.82;17.40;;;;;;;;;;5074751;28;20053;-80
2021/12/04 08:17:31;;;;;;;70.88;18.15;;;;;;;;;;5067913;28;20064;-82
2021/12/04 08:19:57;;;;;;;76.32;18.30;;;;;;;;;;5072865;28;20053;-82
2021/12/04 08:22:23;;;;;;;76.45;18.58;;;;;;;;;;5077638;28;20048;-81
2021/12/04 08:24:50;;;;;;;75.93;19.45;;;;;;;;;;5084116;28;20087;-82
2021/12/04 08:27:17;;;;;;;73.95;18.83;;;;;;;;;;5074453;28;20053;-81
2021/12/04 08:29:43;;;;;;;74.82;17.85;;;;;;;;;;5073630;28;20123;-82
2021/12/04 08:32:10;;;;;;;83.53;19.83;;;;;;;;;;5074266;28;20068;-81
2021/12/04 08:34:37;;;;;;;83.00;19.88;;;;;;;;;;5070608;28;20107;-81
2021/12/04 08:37:04;;;;;;;84.85;17.92;;;;;;;;;;5057999;28;20049;-82
2021/12/04 08:39:31;;;;;;;98.65;21.40;;;;;;;;;;5078604;28;20125;-79
2021/12/04 08:41:58;;;;;;;79.07;19.52;;;;;;;;;;5079750;28;20067;-82
2021/12/04 08:44:25;;;;;;;77.57;20.02;;;;;;;;;;5071308;28;20052;-82
2021/12/04 08:46:51;;;;;;;70.20;18.40;;;;;;;;;;5075260;28;20107;-81
2021/12/04 08:49:18;;;;;;;60.30;18.52;;;;;;;;;;5076758;28;20053;-81
2021/12/04 08:51:44;;;;;;;77.43;19.27;;;;;;;;;;5076440;28;20091;-82
2021/12/04 08:54:11;;;;;;;58.30;18.00;;;;;;;;;;5075605;28;20110;-82
2021/12/04 08:56:37;;;;;;;68.35;18.77;;;;;;;;;;5075284;28;20504;-82
2021/12/04 08:59:04;;;;;;;68.03;18.90;;;;;;;;;;5076871;28;20107;-82
2021/12/04 09:01:32;;;;;;;63.38;19.02;;;;;;;;;;5074738;28;20068;-82
2021/12/04 09:04:04;;;;;;;57.72;17.75;;;;;;;;;;5074000;28;20095;-82
2021/12/04 09:06:32;;;;;;;66.07;20.02;;;;;;;;;;5073601;28;20091;-82
2021/12/04 09:08:58;;;;;;;72.30;18.15;;;;;;;;;;5073177;28;20049;-80
2021/12/04 09:11:27;;;;;;;66.63;18.52;;;;;;;;;;5062046;28;20368;-82
2021/12/04 09:13:53;;;;;;;55.75;17.13;;;;;;;;;;5074199;28;20072;-82
2021/12/04 09:16:20;;;;;;;66.00;17.08;;;;;;;;;;5074303;28;20106;-80
2021/12/04 09:18:47;;;;;;;68.97;18.55;;;;;;;;;;5072319;28;20159;-82
2021/12/04 09:21:14;;;;;;;68.05;17.35;;;;;;;;;;5071878;28;20057;-83
2021/12/04 09:23:46;;;;;;;55.63;16.17;;;;;;;;;;5071380;28;20045;-80
2021/12/04 09:26:26;;;;;;;54.38;17.50;;;;;;;;;;5069471;28;20053;-81
2021/12/04 09:29:04;;;;;;;56.60;16.13;;;;;;;;;;5074046;28;20033;-80
2021/12/04 09:36:45;;;;;;;51.42;16.67;;;;;;;;;;5072442;28;20053;-82
2021/12/04 10:04:20;;;;;;;49.58;15.55;;;;;;;;;;5076623;28;20526;-83
2021/12/04 10:15:24;;;;;;;52.90;15.20;;;;;;;;;;5079047;28;20049;-83
2021/12/04 10:20:37;;;;;;;43.95;13.93;;;;;;;;;;5077910;28;20909;-83
2021/12/04 10:32:07;;;;;;;59.10;16.10;;;;;;;;;;5041725;28;20089;-79
2021/12/04 10:34:27;;;;;;;58.83;16.13;;;;;;;;;;5072744;28;20486;-79
2021/12/04 10:36:54;;;;;;;52.40;16.92;;;;;;;;;;5072234;28;20585;-82
2021/12/04 10:39:20;;;;;;;52.60;15.65;;;;;;;;;;5071092;28;20103;-79
2021/12/04 10:41:47;;;;;;;56.88;17.05;;;;;;;;;;5073046;28;20049;-78
2021/12/04 10:44:18;;;;;;;50.63;16.17;;;;;;;;;;5072684;28;20056;-81
2021/12/04 10:46:51;;;;;;;57.03;16.00;;;;;;;;;;5062469;28;20068;-78
2021/12/04 10:49:28;;;;;;;58.78;16.70;;;;;;;;;;5070902;28;20103;-79
2021/12/04 10:52:02;;;;;;;64.50;18.02;;;;;;;;;;5068674;28;20049;-77
2021/12/04 10:54:38;;;;;;;63.70;17.52;;;;;;;;;;5057894;28;20057;-78
2021/12/04 10:57:36;;;;;;;55.85;16.52;;;;;;;;;;5068409;28;20084;-79
2021/12/04 11:00:16;;;;;;;59.35;17.45;;;;;;;;;;5066463;28;20528;-79
2021/12/04 11:02:51;;;;;;;52.58;16.55;;;;;;;;;;5049660;28;20137;-77
2021/12/04 11:22:27;;;;;;;46.17;15.32;;;;;;;;;;5067644;28;20056;-79
2021/12/04 11:28:00;;;;;;;49.08;15.60;;;;;;;;;;5056518;28;20053;-78
2021/12/04 11:38:48;;;;;;;48.35;15.02;;;;;;;;;;5070065;28;20093;-79
2021/12/04 11:41:26;;;;;;;41.47;13.85;;;;;;;;;;5064942;28;20554;-78
2021/12/04 11:46:25;;;;;;;43.97;14.40;;;;;;;;;;5061045;28;20072;-78
2021/12/04 11:48:52;;;;;;;42.78;14.13;;;;;;;;;;5066340;28;20135;-78
2021/12/04 11:51:20;;;;;;;41.15;13.73;;;;;;;;;;5064748;28;20057;-79
2021/12/04 11:53:47;;;;;;;46.30;15.10;;;;;;;;;;5068400;28;20127;-78
2021/12/04 11:56:14;;;;;;;42.33;14.82;;;;;;;;;;5065389;28;20049;-79
2021/12/04 11:58:43;;;;;;;32.60;13.02;;;;;;;;;;5059742;28;20053;-78
2021/12/04 12:01:23;;;;;;;39.10;13.07;;;;;;;;;;5065352;28;20508;-78
2021/12/04 12:03:53;;;;;;;35.83;12.50;;;;;;;;;;5064316;28;20060;-79
2021/12/04 12:06:46;;;;;;;35.78;11.98;;;;;;;;;;5066761;28;20080;-79
2021/12/04 12:09:14;;;;;;;35.33;13.40;;;;;;;;;;5067345;28;20628;-79
2021/12/04 12:11:49;;;;;;;42.35;13.40;;;;;;;;;;5068057;28;20878;-78
2021/12/04 12:14:16;;;;;;;37.33;13.70;;;;;;;;;;5070503;28;20136;-79
2021/12/04 12:16:47;;;;;;;38.95;13.98;;;;;;;;;;5072500;28;20087;-79
2021/12/04 12:19:28;;;;;;;39.25;13.60;;;;;;;;;;5071009;28;20056;-78
2021/12/04 12:22:21;;;;;;;;;;;;;;;;;;5054011;28;20097;-79
2021/12/04 12:37:51;;;;;;;48.92;14.65;;;;;;;;;;5065765;28;20072;-79
2021/12/04 12:40:18;;;;;;;;;;;;;;;;;;5077205;28;20115;-79
2021/12/04 12:42:46;;;;;;;40.28;14.43;;;;;;;;;;5070942;28;47005;-79
2021/12/04 12:45:15;;;;;;;36.22;14.65;;;;;;;;;;5071662;28;20110;-79
2021/12/04 12:47:58;;;;;;;42.45;13.35;;;;;;;;;;5073507;28;20077;-79
2021/12/04 12:50:30;;;;;;;36.88;14.85;;;;;;;;;;5071419;28;20943;-79
2021/12/04 12:53:10;;;;;;;40.42;14.90;;;;;;;;;;5061711;28;20135;-79
2021/12/04 12:55:37;;;;;;;35.83;14.43;;;;;;;;;;5084360;28;20052;-79
2021/12/04 12:58:16;;;;;;;36.88;14.80;;;;;;;;;;5069151;28;20060;-78
2021/12/04 13:11:53;;;;;;;39.72;13.73;;;;;;;;;;5077030;28;20028;-79
2021/12/04 13:14:19;;;;;;;42.45;14.85;;;;;;;;;;5070411;28;20099;-79
2021/12/04 13:16:50;;;;;;;38.90;15.18;;;;;;;;;;5067723;28;20045;-78
2021/12/04 13:19:19;;;;;;;44.10;15.10;;;;;;;;;;5065761;28;20725;-78
2021/12/04 13:21:48;;;;;;;35.92;13.38;;;;;;;;;;5066809;28;20111;-79
2021/12/04 13:24:15;;;;;;;37.67;13.63;;;;;;;;;;5068942;28;20088;-77
2021/12/04 13:26:48;;;;;;;43.78;14.18;;;;;;;;;;5068769;28;20053;-78
2021/12/04 13:29:15;;;;;;;48.75;15.27;;;;;;;;;;5068660;28;20592;-78
2021/12/04 13:31:42;;;;;;;37.95;13.77;;;;;;;;;;5069631;28;20573;-77
2021/12/04 13:34:10;;;;;;;36.42;14.10;;;;;;;;;;5070269;28;20095;-78
2021/12/04 13:36:38;;;;;;;41.40;15.05;;;;;;;;;;5067923;28;20057;-78
2021/12/04 13:39:04;;;;;;;40.90;15.35;;;;;;;;;;5069505;28;20049;-78
2021/12/04 13:41:31;;;;;;;42.03;15.02;;;;;;;;;;5068598;28;20068;-79
2021/12/04 13:43:58;;;;;;;36.78;14.48;;;;;;;;;;5069599;28;20467;-78
2021/12/04 13:46:25;;;;;;;42.85;15.00;;;;;;;;;;5069748;28;20056;-79
2021/12/04 13:48:58;;;;;;;33.97;14.32;;;;;;;;;;5069939;28;20076;-78
2021/12/04 13:51:25;;;;;;;44.40;15.63;;;;;;;;;;5068444;28;20049;-78
2021/12/04 13:53:56;;;;;;;42.72;14.50;;;;;;;;;;5069544;28;20121;-79
2021/12/04 13:56:22;;;;;;;35.70;13.45;;;;;;;;;;5068320;28;20593;-78
2021/12/04 13:58:52;;;;;;;48.03;15.48;;;;;;;;;;5068305;28;20128;-78
2021/12/04 14:01:19;;;;;;;47.20;15.20;;;;;;;;;;5069603;28;20103;-77
2021/12/04 14:03:47;;;;;;;45.38;15.57;;;;;;;;;;5067987;28;20057;-77
2021/12/04 14:06:17;;;;;;;44.60;14.85;;;;;;;;;;5067349;28;20128;-77
2021/12/04 14:08:55;;;;;;;39.53;15.05;;;;;;;;;;5068593;28;20087;-78
2021/12/04 14:11:32;;;;;;;43.67;14.93;;;;;;;;;;5060737;28;20045;-78
2021/12/04 14:13:58;;;;;;;38.40;13.82;;;;;;;;;;5065936;28;20508;-78
2021/12/04 14:16:25;;;;;;;35.88;13.18;;;;;;;;;;5061381;28;20116;-77
2021/12/04 14:18:51;;;;;;;37.88;13.38;;;;;;;;;;5057111;28;20420;-77
2021/12/04 14:21:18;;;;;;;42.85;13.35;;;;;;;;;;5064747;28;20131;-79
2021/12/04 14:23:50;;;;;;;44.42;18.52;;;;;;;;;;5058152;28;20061;-78
2021/12/04 14:26:16;;;;;;;39.70;14.18;;;;;;;;;;5070444;28;20061;-78
2021/12/04 14:29:02;;;;;;;43.28;16.08;;;;;;;;;;5075177;28;20055;-78
2021/12/04 14:31:31;;;;;;;41.10;13.82;;;;;;;;;;5070346;28;20075;-78
2021/12/04 14:33:57;;;;;;;48.92;18.00;;;;;;;;;;5071453;28;20049;-78
2021/12/04 14:36:26;;;;;;;46.42;21.15;;;;;;;;;;5073948;28;20092;-79
2021/12/04 14:38:54;;;;;;;;;;;;;;;;;;5081182;28;20049;-78
2021/12/04 14:41:23;;;;;;;37.55;14.73;;;;;;;;;;5070369;28;42659;-79
2021/12/04 14:43:49;;;;;;;36.88;13.68;;;;;;;;;;5070150;28;20052;-78
2021/12/04 14:46:18;;;;;;;40.78;14.32;;;;;;;;;;5065307;28;20099;-78
2021/12/04 14:48:48;;;;;;;39.22;13.93;;;;;;;;;;5070244;28;20102;-78
2021/12/04 14:51:16;;;;;;;35.30;11.82;;;;;;;;;;5069787;28;20037;-78
2021/12/04 14:53:54;;;;;;;39.00;12.88;;;;;;;;;;5071760;28;20107;-79
2021/12/04 14:56:25;;;;;;;35.55;12.13;;;;;;;;;;5070545;28;20053;-78
2021/12/04 14:58:52;;;;;;;39.67;12.65;;;;;;;;;;5067403;28;20083;-78
2021/12/04 15:01:19;;;;;;;46.30;15.73;;;;;;;;;;5070051;28;20052;-78
2021/12/04 15:03:51;;;;;;;41.05;14.93;;;;;;;;;;5069568;28;20057;-78
2021/12/04 15:06:19;;;;;;;36.88;13.88;;;;;;;;;;5071206;28;20123;-78
2021/12/04 15:08:48;;;;;;;30.52;11.88;;;;;;;;;;5071321;28;20053;-79
2021/12/04 15:11:16;;;;;;;29.30;11.65;;;;;;;;;;5070365;28;20049;-78
2021/12/04 15:13:51;;;;;;;32.38;12.13;;;;;;;;;;5070968;28;20052;-78
2021/12/04 15:16:22;;;;;;;33.50;11.95;;;;;;;;;;5066218;28;20111;-78
2021/12/04 15:18:48;;;;;;;36.25;12.38;;;;;;;;;;5067623;28;20060;-82
2021/12/04 15:21:34;;;;;;;26.48;10.30;;;;;;;;;;5073106;28;20068;-82
2021/12/04 15:24:01;;;;;;;21.10;9.00;;;;;;;;;;5074900;28;20052;-82
2021/12/04 15:26:27;;;;;;;25.20;10.38;;;;;;;;;;5077633;28;20064;-83
2021/12/04 15:28:54;;;;;;;20.33;9.40;;;;;;;;;;5072340;28;20042;-82
2021/12/04 15:31:24;;;;;;;42.90;19.13;;;;;;;;;;5076856;28;20067;-83
2021/12/04 15:33:53;;;;;;;17.98;8.05;;;;;;;;;;5077263;28;20047;-82
2021/12/04 15:36:30;;;;;;;20.70;9.27;;;;;;;;;;5078031;28;20053;-82
2021/12/04 15:38:58;;;;;;;21.27;7.63;;;;;;;;;;5077344;28;20071;-83
2021/12/04 15:44:28;;;;;;;18.97;8.00;;;;;;;;;;5067020;28;20114;-81
2021/12/04 15:55:10;;;;;;;20.95;8.82;;;;;;;;;;5076467;28;20053;-81
2021/12/04 15:57:36;;;;;;;17.35;6.32;;;;;;;;;;5082552;28;20049;-82
2021/12/04 16:00:11;;;;;;;17.45;6.75;;;;;;;;;;5075426;28;20037;-81
2021/12/04 16:02:38;;;;;;;22.55;7.38;;;;;;;;;;5073148;28;20115;-82
2021/12/04 16:05:07;;;;;;;19.98;6.53;;;;;;;;;;5073861;28;20064;-81
2021/12/04 16:07:33;;;;;;;19.73;9.35;;;;;;;;;;5074354;28;20037;-81
2021/12/04 16:10:07;;;;;;;20.83;7.93;;;;;;;;;;5074637;28;20079;-82
2021/12/04 16:12:36;;;;;;;20.73;6.68;;;;;;;;;;5074066;28;20057;-81
2021/12/04 16:15:03;;;;;;;21.52;9.40;;;;;;;;;;5074146;28;20056;-83
2021/12/04 16:17:29;;;;;;;22.35;7.30;;;;;;;;;;5072774;28;20085;-80
2021/12/04 16:20:05;;;;;;;20.00;8.50;;;;;;;;;;5072069;28;20053;-79
2021/12/04 16:22:36;;;;;;;20.08;7.30;;;;;;;;;;5073253;28;20048;-82
2021/12/04 16:25:06;;;;;;;;;;;;;;;;;;5074116;28;20053;-81
2021/12/04 16:27:37;;;;;;;26.08;9.23;;;;;;;;;;5072053;28;46836;-82
2021/12/04 16:38:03;;;;;;;21.42;7.60;;;;;;;;;;5075785;28;20171;-81
2021/12/04 16:40:33;;;;;;;24.58;7.88;;;;;;;;;;5075219;28;20029;-80
2021/12/04 16:43:07;;;;;;;22.88;8.52;;;;;;;;;;5071923;28;20060;-82
2021/12/04 16:45:35;;;;;;;26.92;12.18;;;;;;;;;;5093191;28;20053;-81
2021/12/04 16:48:06;;;;;;;23.08;8.00;;;;;;;;;;5073528;28;20053;-82
2021/12/04 16:58:50;;;;;;;27.77;9.90;;;;;;;;;;5077202;28;20045;-82
2021/12/04 17:01:17;;;;;;;21.40;7.15;;;;;;;;;;5077490;28;20091;-80
2021/12/04 17:03:44;;;;;;;23.58;8.55;;;;;;;;;;5077941;28;20057;-79
2021/12/04 17:06:11;;;;;;;20.08;7.45;;;;;;;;;;5077141;28;20048;-79
2021/12/04 17:08:37;;;;;;;20.52;6.13;;;;;;;;;;5076978;28;20057;-81
2021/12/04 17:11:04;;;;;;;21.35;7.60;;;;;;;;;;5077806;28;20091;-82
2021/12/04 17:13:31;;;;;;;20.13;6.22;;;;;;;;;;5077503;28;20136;-82
2021/12/04 17:15:58;;;;;;;16.88;7.93;;;;;;;;;;5076396;28;20547;-81
2021/12/04 17:18:26;;;;;;;18.45;7.25;;;;;;;;;;5077379;28;20052;-81
2021/12/04 17:20:55;;;;;;;28.58;13.02;;;;;;;;;;5076007;28;20049;-81
2021/12/04 17:23:22;;;;;;;22.90;9.90;;;;;;;;;;5076670;28;20053;-79
2021/12/04 17:25:49;;;;;;;18.77;7.38;;;;;;;;;;5077341;28;20053;-80
2021/12/04 17:28:16;;;;;;;14.32;6.13;;;;;;;;;;5085641;28;20080;-80
2021/12/04 17:30:43;;;;;;;17.25;6.82;;;;;;;;;;5073585;28;20751;-82
2021/12/04 17:33:10;;;;;;;17.80;7.55;;;;;;;;;;5077831;28;20518;-81
2021/12/04 17:35:39;;;;;;;22.80;7.20;;;;;;;;;;5076624;28;20861;-81
2021/12/04 17:38:06;;;;;;;18.35;5.13;;;;;;;;;;5079174;28;20061;-81
2021/12/04 17:40:34;;;;;;;11.07;4.60;;;;;;;;;;5076728;28;20862;-81
2021/12/04 17:43:01;;;;;;;12.55;5.55;;;;;;;;;;5077890;28;20075;-80
2021/12/04 17:45:28;;;;;;;25.33;6.05;;;;;;;;;;5074510;28;20076;-82
2021/12/04 17:47:55;;;;;;;16.15;5.63;;;;;;;;;;5077420;28;20052;-80
2021/12/04 17:50:25;;;;;;;17.55;8.25;;;;;;;;;;5076554;28;20057;-82
2021/12/04 17:52:56;;;;;;;26.83;11.90;;;;;;;;;;5070275;28;20070;-81